sim
Sign-in with your pilot id or email,
or register
Callsign
Passwort

Schedule Details

Flight Number: EWG1782 (4)
Departure: Munich Airport (EDDM) at 06:55
Arrival: Palma de Mallorca Airport (LEPA) at 09:05
Route: Eurowings Passenger Schedule. Enter filed route here before submitting Pirep.

Weather Information
Getting current METAR information for EDDM 190820Z 09007KT CAVOK 14/08 Q1020 NOSIG
Getting current METAR information for LEPA 190800Z 02003KT 320V070 9000 FEW014 26/22 Q1014 NOSIG

Schedule Frequency

Route Map